Time;durP1;ratioP1;P1;durP2;ratioP2;P2;SDS_P1;SDS_P2;PMS_P1;PMS_P2;Temp;Humidity;BMP_temperature;BMP_pressure;BME280_temperature;BME280_humidity;BME280_pressure;Samples;Min_cycle;Max_cycle;Signal;HPM_P1;HPM_P2
2021/07/26 00:01:00;;;;;;;15.52;13.10;;;21.90;87.80;;;;;;3559467;40;20168;-63
2021/07/26 00:03:26;;;;;;;18.40;13.45;;;21.90;87.70;;;;;;3558908;40;20698;-63
2021/07/26 00:05:59;;;;;;;14.73;12.52;;;21.90;87.70;;;;;;3558532;40;20030;-63
2021/07/26 00:08:25;;;;;;;17.85;13.90;;;21.90;88.00;;;;;;3559557;40;20041;-66
2021/07/26 00:11:08;;;;;;;19.95;14.27;;;21.90;88.10;;;;;;3557882;40;20611;-66
2021/07/26 00:13:34;;;;;;;15.30;13.63;;;21.90;88.00;;;;;;3557221;40;20037;-65
2021/07/26 00:16:00;;;;;;;17.23;13.60;;;21.90;88.00;;;;;;3558432;40;20025;-65
2021/07/26 00:18:27;;;;;;;16.05;13.07;;;21.90;88.10;;;;;;3557782;40;20092;-63
2021/07/26 00:20:53;;;;;;;17.48;14.05;;;21.90;88.00;;;;;;3557700;40;20060;-63
2021/07/26 00:23:19;;;;;;;15.52;13.18;;;21.90;88.10;;;;;;3558352;40;20041;-63
2021/07/26 00:25:44;;;;;;;15.48;12.60;;;21.90;88.20;;;;;;3560193;40;20057;-63
2021/07/26 00:28:10;;;;;;;16.77;13.60;;;22.00;88.20;;;;;;3558296;40;20041;-63
2021/07/26 00:30:36;;;;;;;16.50;13.00;;;22.00;88.00;;;;;;3559563;40;20053;-63
2021/07/26 00:33:02;;;;;;;17.63;13.27;;;22.00;87.90;;;;;;3560028;40;20037;-64
2021/07/26 00:35:28;;;;;;;19.83;14.60;;;22.00;87.80;;;;;;3560582;40;20028;-63
2021/07/26 00:37:54;;;;;;;18.13;14.52;;;22.00;87.70;;;;;;3560605;40;20042;-63
2021/07/26 00:40:20;;;;;;;16.23;14.32;;;22.10;87.60;;;;;;3560255;40;20034;-63
2021/07/26 00:42:45;;;;;;;15.73;13.55;;;22.10;87.40;;;;;;3560903;40;20801;-63
2021/07/26 00:45:12;;;;;;;17.30;14.27;;;22.00;87.80;;;;;;3560227;40;20311;-63
2021/07/26 00:47:37;;;;;;;15.35;13.48;;;22.00;87.70;;;;;;3550862;40;20029;-63
2021/07/26 00:50:04;;;;;;;18.45;13.90;;;22.00;87.80;;;;;;3559999;40;20065;-63
2021/07/26 00:52:29;;;;;;;17.58;13.93;;;22.10;87.80;;;;;;3561027;40;20057;-63
2021/07/26 00:54:55;;;;;;;15.55;13.55;;;22.10;87.40;;;;;;3560380;40;20292;-63
2021/07/26 00:57:22;;;;;;;16.13;14.27;;;22.10;87.30;;;;;;3560086;40;20022;-63
2021/07/26 00:59:54;;;;;;;17.52;13.70;;;22.20;87.30;;;;;;3556917;40;20026;-63
2021/07/26 01:02:20;;;;;;;16.30;13.52;;;22.20;87.10;;;;;;3561074;40;20045;-64
2021/07/26 01:04:45;;;;;;;18.45;13.43;;;22.20;87.00;;;;;;3561403;40;20032;-63
2021/07/26 01:07:11;;;;;;;17.23;13.82;;;22.20;86.90;;;;;;3561129;40;20095;-63
2021/07/26 01:09:37;;;;;;;17.60;14.38;;;22.20;86.80;;;;;;3560969;40;20306;-63
2021/07/26 01:12:03;;;;;;;15.75;13.30;;;22.20;86.70;;;;;;3561473;40;20062;-64
2021/07/26 01:14:29;;;;;;;13.88;12.27;;;22.20;86.60;;;;;;3559985;40;20029;-66
2021/07/26 01:16:55;;;;;;;15.32;13.30;;;22.20;86.40;;;;;;3560924;40;20034;-66
2021/07/26 01:19:21;;;;;;;15.93;13.35;;;22.20;86.40;;;;;;3560608;40;20026;-65
2021/07/26 01:21:46;;;;;;;16.52;13.80;;;22.20;86.40;;;;;;3560191;40;20048;-65
2021/07/26 01:24:13;;;;;;;17.95;14.23;;;22.20;86.20;;;;;;3559920;40;20419;-66
2021/07/26 01:26:38;;;;;;;16.63;13.57;;;22.20;86.30;;;;;;3558904;40;20053;-65
2021/07/26 01:29:06;;;;;;;17.00;13.43;;;22.20;86.10;;;;;;3559161;40;20508;-65
2021/07/26 01:31:33;;;;;;;14.90;13.27;;;22.20;86.00;;;;;;3558893;40;20021;-66
2021/07/26 01:33:59;;;;;;;16.45;13.45;;;22.10;86.00;;;;;;3559459;40;20037;-63
2021/07/26 01:36:25;;;;;;;15.35;12.82;;;22.10;85.90;;;;;;3558834;40;20045;-63
2021/07/26 01:38:53;;;;;;;17.60;13.90;;;22.10;85.90;;;;;;3559505;40;20029;-63
2021/07/26 01:41:25;;;;;;;15.23;13.10;;;22.10;86.00;;;;;;3559827;40;20037;-64
2021/07/26 01:44:04;;;;;;;16.55;12.80;;;22.10;86.00;;;;;;3557921;40;20111;-63
2021/07/26 01:46:48;;;;;;;17.75;13.77;;;22.10;86.00;;;;;;3559123;40;20049;-63
2021/07/26 01:49:20;;;;;;;18.45;13.57;;;22.10;86.00;;;;;;3559035;40;20033;-63
2021/07/26 01:51:47;;;;;;;16.27;13.27;;;22.10;86.00;;;;;;3559724;40;20038;-63
2021/07/26 01:54:13;;;;;;;17.00;13.05;;;22.10;85.80;;;;;;3559722;40;20082;-63
2021/07/26 01:56:39;;;;;;;15.50;12.85;;;22.00;85.80;;;;;;3560231;40;20064;-64
2021/07/26 01:59:07;;;;;;;15.75;13.45;;;21.90;86.20;;;;;;3559583;40;20030;-63
2021/07/26 02:01:33;;;;;;;17.85;14.23;;;21.90;86.20;;;;;;3559758;40;20029;-63
2021/07/26 02:03:59;;;;;;;17.45;14.77;;;21.90;86.20;;;;;;3559972;40;20066;-63
2021/07/26 02:06:26;;;;;;;19.50;13.85;;;21.90;86.10;;;;;;3559880;40;20022;-63
2021/07/26 02:08:52;;;;;;;18.75;13.98;;;21.90;86.40;;;;;;3560246;40;20154;-63
2021/07/26 02:11:22;;;;;;;18.42;14.18;;;21.80;87.00;;;;;;3560253;40;20359;-64
2021/07/26 02:13:52;;;;;;;16.60;13.77;;;21.80;86.50;;;;;;3559510;40;20144;-64
2021/07/26 02:16:18;;;;;;;14.88;13.27;;;21.90;86.60;;;;;;3559751;40;20056;-63
2021/07/26 02:18:44;;;;;;;14.82;13.07;;;21.90;86.30;;;;;;3560216;40;20077;-63
2021/07/26 02:21:10;;;;;;;16.08;13.85;;;21.90;86.20;;;;;;3559333;40;20459;-63
2021/07/26 02:23:36;;;;;;;18.48;13.68;;;21.90;86.10;;;;;;3558346;40;20041;-63
2021/07/26 02:26:01;;;;;;;14.38;12.63;;;21.90;86.00;;;;;;3560376;40;20102;-64
2021/07/26 02:28:27;;;;;;;16.05;13.27;;;21.80;85.90;;;;;;3560123;40;20053;-62
2021/07/26 02:30:52;;;;;;;17.85;13.65;;;21.80;85.90;;;;;;3560225;40;20878;-64
2021/07/26 02:33:18;;;;;;;16.73;13.57;;;21.80;86.00;;;;;;3560480;40;20131;-63
2021/07/26 02:35:44;;;;;;;14.98;12.95;;;21.80;86.20;;;;;;3558622;40;20033;-66
2021/07/26 02:38:10;;;;;;;15.35;12.48;;;21.80;86.00;;;;;;3560549;40;20502;-66
2021/07/26 02:40:35;;;;;;;15.52;12.77;;;21.80;86.20;;;;;;3560018;40;20034;-66
2021/07/26 02:43:01;;;;;;;15.73;12.10;;;21.80;86.30;;;;;;3559208;40;20047;-66
2021/07/26 02:45:27;;;;;;;14.77;13.23;;;21.80;86.10;;;;;;3558825;40;20026;-66
2021/07/26 02:47:53;;;;;;;15.38;13.13;;;21.80;86.10;;;;;;3557736;40;20075;-66
2021/07/26 02:50:20;;;;;;;15.75;13.02;;;21.80;85.90;;;;;;3558881;40;20049;-65
2021/07/26 02:52:46;;;;;;;14.75;12.25;;;21.80;85.80;;;;;;3558424;40;20378;-66
2021/07/26 02:55:13;;;;;;;15.30;13.13;;;21.80;86.00;;;;;;3559311;40;20151;-66
2021/07/26 02:57:38;;;;;;;15.85;13.38;;;21.70;86.10;;;;;;3558305;40;20034;-65
2021/07/26 03:00:07;;;;;;;14.90;12.70;;;21.70;86.40;;;;;;3559133;40;20037;-66
2021/07/26 03:02:34;;;;;;;15.30;12.45;;;21.70;86.60;;;;;;3559432;40;20588;-66
2021/07/26 03:05:00;;;;;;;16.25;12.45;;;21.70;86.60;;;;;;3558036;40;20508;-66
2021/07/26 03:07:26;;;;;;;15.98;13.55;;;21.70;86.50;;;;;;3559448;40;20101;-66
2021/07/26 03:09:51;;;;;;;16.75;13.18;;;21.60;86.60;;;;;;3559553;40;20034;-63
2021/07/26 03:12:17;;;;;;;15.43;13.15;;;21.60;86.70;;;;;;3558996;40;20072;-63
2021/07/26 03:14:42;;;;;;;15.98;13.48;;;21.60;86.80;;;;;;3560098;40;20036;-62
2021/07/26 03:17:08;;;;;;;14.63;12.60;;;21.60;87.00;;;;;;3560538;40;20022;-63
2021/07/26 03:19:34;;;;;;;14.63;13.00;;;21.60;87.20;;;;;;3559818;40;20115;-62
2021/07/26 03:22:48;;;;;;;16.17;13.10;;;21.60;87.40;;;;;;3558461;40;20516;-62
2021/07/26 03:25:14;;;;;;;15.27;12.85;;;21.50;87.50;;;;;;3558224;40;20041;-63
2021/07/26 03:27:40;;;;;;;15.55;13.48;;;21.50;87.50;;;;;;3559627;40;20049;-63
2021/07/26 03:30:06;;;;;;;16.67;13.85;;;21.50;87.60;;;;;;3558910;40;20450;-63
2021/07/26 03:32:32;;;;;;;14.70;13.18;;;21.60;87.70;;;;;;3558188;40;20085;-63
2021/07/26 03:34:58;;;;;;;20.15;14.10;;;21.60;87.70;;;;;;3559821;40;20340;-63
2021/07/26 03:37:23;;;;;;;14.95;13.35;;;21.60;87.60;;;;;;3559223;40;20509;-63
2021/07/26 03:39:49;;;;;;;17.35;14.55;;;21.60;87.30;;;;;;3558576;40;20033;-62
2021/07/26 03:42:15;;;;;;;18.50;14.40;;;21.60;87.40;;;;;;3559544;40;20061;-63
2021/07/26 03:44:40;;;;;;;15.90;14.20;;;21.60;87.40;;;;;;3559610;40;20033;-63
2021/07/26 03:47:06;;;;;;;16.50;14.52;;;21.60;87.50;;;;;;3559933;40;20041;-63
2021/07/26 03:49:32;;;;;;;17.42;14.30;;;21.60;87.60;;;;;;3558861;40;20351;-63
2021/07/26 03:51:57;;;;;;;16.30;14.55;;;21.60;87.70;;;;;;3559532;40;20038;-63
2021/07/26 03:54:23;;;;;;;20.10;14.90;;;21.60;87.70;;;;;;3559723;40;20415;-63
2021/07/26 03:56:49;;;;;;;19.77;14.65;;;21.60;87.90;;;;;;3559998;40;20033;-63
2021/07/26 03:59:14;;;;;;;19.05;14.75;;;21.60;87.60;;;;;;3560097;40;20047;-63
2021/07/26 04:01:40;;;;;;;19.65;15.68;;;21.70;87.30;;;;;;3560115;40;20616;-63
2021/07/26 04:04:06;;;;;;;18.75;14.88;;;21.70;87.20;;;;;;3559522;40;20029;-63
2021/07/26 04:06:31;;;;;;;17.45;15.05;;;21.80;86.90;;;;;;3559828;40;20045;-63
2021/07/26 04:08:58;;;;;;;16.98;13.90;;;21.80;86.50;;;;;;3560865;40;20134;-63
2021/07/26 04:11:30;;;;;;;18.17;14.35;;;21.80;86.20;;;;;;3560274;40;20061;-63
2021/07/26 04:14:00;;;;;;;17.90;14.05;;;21.80;86.20;;;;;;3560158;40;20139;-64
2021/07/26 04:16:26;;;;;;;15.70;13.10;;;21.90;85.80;;;;;;3559667;40;20026;-64
2021/07/26 04:18:52;;;;;;;16.17;13.90;;;21.90;85.60;;;;;;3560417;40;20131;-63
2021/07/26 04:21:18;;;;;;;14.95;12.25;;;21.90;85.60;;;;;;3560547;40;20025;-63
2021/07/26 04:23:44;;;;;;;13.60;11.70;;;22.00;85.00;;;;;;3559307;40;20901;-63
2021/07/26 04:26:09;;;;;;;15.18;12.23;;;22.00;84.60;;;;;;3560487;40;20037;-63
2021/07/26 04:28:36;;;;;;;14.93;12.38;;;22.00;84.40;;;;;;3560786;40;20126;-63
2021/07/26 04:31:03;;;;;;;17.27;12.02;;;22.00;84.60;;;;;;3560073;40;20036;-64
2021/07/26 04:33:28;;;;;;;15.25;12.40;;;22.10;84.20;;;;;;3560646;40;20041;-64
2021/07/26 04:35:54;;;;;;;14.52;11.25;;;22.10;84.20;;;;;;3559233;40;20239;-62
2021/07/26 04:38:20;;;;;;;16.13;12.60;;;22.10;84.20;;;;;;3560747;40;20303;-63
2021/07/26 04:40:45;;;;;;;14.00;11.98;;;22.10;83.90;;;;;;3560612;40;20037;-64
2021/07/26 04:43:11;;;;;;;16.25;11.95;;;22.20;84.00;;;;;;3561211;40;20469;-63
2021/07/26 04:45:37;;;;;;;13.45;12.05;;;22.30;83.40;;;;;;3561545;40;20041;-63
2021/07/26 04:48:03;;;;;;;12.85;11.45;;;22.30;82.60;;;;;;3560807;40;20037;-63
2021/07/26 04:50:29;;;;;;;12.55;10.73;;;22.30;82.50;;;;;;3560692;40;20036;-62
2021/07/26 04:52:54;;;;;;;16.08;11.90;;;22.30;82.80;;;;;;3559192;40;20037;-63
2021/07/26 04:55:20;;;;;;;12.65;11.35;;;22.40;83.00;;;;;;3560871;40;20025;-63
2021/07/26 04:57:46;;;;;;;12.68;11.18;;;22.40;83.20;;;;;;3560167;40;20030;-63
2021/07/26 05:00:12;;;;;;;14.88;12.15;;;22.40;83.00;;;;;;3561189;40;20025;-63
2021/07/26 05:02:40;;;;;;;13.25;11.65;;;22.40;82.20;;;;;;3560895;40;20041;-63
2021/07/26 05:05:06;;;;;;;17.55;12.43;;;22.40;82.00;;;;;;3560640;40;20041;-63
2021/07/26 05:07:32;;;;;;;14.85;12.32;;;22.30;81.80;;;;;;3561078;40;20021;-63
2021/07/26 05:09:58;;;;;;;16.48;12.18;;;22.30;82.20;;;;;;3560369;40;20044;-63
2021/07/26 05:12:24;;;;;;;14.38;11.45;;;22.30;82.40;;;;;;3560751;40;20032;-63
2021/07/26 05:14:52;;;;;;;14.70;12.65;;;22.30;82.60;;;;;;3560736;40;20025;-63
2021/07/26 05:17:26;;;;;;;12.95;11.57;;;22.30;82.90;;;;;;3561123;40;20037;-63
2021/07/26 05:19:52;;;;;;;14.60;11.70;;;22.30;83.10;;;;;;3560397;40;20443;-63
2021/07/26 05:22:22;;;;;;;16.10;12.90;;;22.20;83.40;;;;;;3561111;40;20473;-63
2021/07/26 05:24:48;;;;;;;15.35;12.25;;;22.20;83.90;;;;;;3559746;40;20618;-64
2021/07/26 05:27:15;;;;;;;13.73;11.77;;;22.20;83.80;;;;;;3558952;40;20039;-62
2021/07/26 05:29:41;;;;;;;12.90;11.52;;;22.30;83.90;;;;;;3559778;40;20062;-63
2021/07/26 05:32:07;;;;;;;14.98;12.20;;;22.40;83.20;;;;;;3558223;40;20449;-63
2021/07/26 05:34:33;;;;;;;15.68;12.10;;;22.40;82.70;;;;;;3558843;40;20033;-63
2021/07/26 05:36:59;;;;;;;16.60;12.40;;;22.50;82.50;;;;;;3559805;40;20037;-63
2021/07/26 05:39:25;;;;;;;13.00;11.38;;;22.50;82.60;;;;;;3560032;40;20639;-64
2021/07/26 05:41:57;;;;;;;15.75;11.98;;;22.60;82.80;;;;;;3560014;40;20040;-63
2021/07/26 05:44:23;;;;;;;13.20;11.80;;;22.60;82.80;;;;;;3558461;40;20697;-63
2021/07/26 05:46:49;;;;;;;13.73;11.35;;;22.60;82.60;;;;;;3560055;40;20026;-63
2021/07/26 05:49:14;;;;;;;16.67;12.23;;;22.70;83.10;;;;;;3560050;40;20040;-63
2021/07/26 05:51:40;;;;;;;12.95;10.98;;;22.60;82.80;;;;;;3559840;40;20037;-63
2021/07/26 05:54:06;;;;;;;13.98;11.85;;;22.70;82.20;;;;;;3559685;40;20037;-63
2021/07/26 05:56:38;;;;;;;14.38;11.52;;;22.70;81.60;;;;;;3559912;40;20030;-63
2021/07/26 05:59:04;;;;;;;13.45;11.13;;;22.80;81.40;;;;;;3559833;40;20025;-64
2021/07/26 06:01:46;;;;;;;15.73;11.90;;;22.80;80.80;;;;;;3559946;40;20037;-63
2021/07/26 06:04:16;;;;;;;12.75;11.10;;;22.90;80.30;;;;;;3559674;40;20031;-64
2021/07/26 06:06:47;;;;;;;16.55;11.73;;;23.00;79.30;;;;;;3559670;40;20045;-64
2021/07/26 06:09:13;;;;;;;15.55;11.73;;;23.10;79.20;;;;;;3558877;40;20041;-63
2021/07/26 06:11:40;;;;;;;13.98;11.27;;;23.30;78.80;;;;;;3559922;40;20465;-63
2021/07/26 06:14:06;;;;;;;13.63;11.85;;;23.40;78.20;;;;;;3560197;40;20037;-63
2021/07/26 06:16:32;;;;;;;12.90;11.45;;;23.50;78.20;;;;;;3560253;40;20115;-63
2021/07/26 06:19:00;;;;;;;12.15;10.52;;;23.50;78.40;;;;;;3557864;40;20026;-63
2021/07/26 06:21:26;;;;;;;14.18;11.85;;;23.50;78.30;;;;;;3547728;40;20139;-63
2021/07/26 06:23:52;;;;;;;12.80;11.38;;;23.60;78.10;;;;;;3559872;40;20135;-63
2021/07/26 06:26:18;;;;;;;12.23;10.93;;;23.60;78.00;;;;;;3559225;40;20037;-63
2021/07/26 06:28:43;;;;;;;12.25;10.95;;;23.70;78.30;;;;;;3560294;40;20506;-63
2021/07/26 06:31:10;;;;;;;14.68;11.57;;;23.80;77.90;;;;;;3560404;40;20139;-63
2021/07/26 06:33:36;;;;;;;13.15;11.57;;;23.90;77.20;;;;;;3560721;40;20037;-63
2021/07/26 06:36:03;;;;;;;14.60;11.77;;;24.00;76.60;;;;;;3557281;40;20081;-63
2021/07/26 06:38:29;;;;;;;13.93;11.55;;;24.20;76.80;;;;;;3556136;40;20498;-63
2021/07/26 06:40:55;;;;;;;13.05;11.15;;;24.30;76.30;;;;;;3559292;40;20035;-63
2021/07/26 06:43:21;;;;;;;11.85;10.52;;;24.50;75.70;;;;;;3559044;40;20508;-63
2021/07/26 06:45:47;;;;;;;13.35;10.43;;;24.60;74.50;;;;;;3559138;40;20053;-64
2021/07/26 06:48:12;;;;;;;14.07;11.55;;;24.70;75.40;;;;;;3559081;40;20449;-64
2021/07/26 06:50:39;;;;;;;11.82;10.63;;;24.80;75.40;;;;;;3558712;40;20021;-63
2021/07/26 06:53:08;;;;;;;13.77;11.00;;;24.80;75.70;;;;;;3558977;40;20029;-64
2021/07/26 06:55:37;;;;;;;11.77;10.57;;;24.90;75.50;;;;;;3559696;40;20139;-63
2021/07/26 06:58:06;;;;;;;12.85;10.63;;;25.00;75.00;;;;;;3559558;40;20040;-63
2021/07/26 07:00:32;;;;;;;11.68;10.35;;;25.10;74.90;;;;;;3558085;40;20037;-63
2021/07/26 07:02:58;;;;;;;12.77;11.40;;;25.20;74.40;;;;;;3559908;40;20679;-64
2021/07/26 07:05:23;;;;;;;12.48;10.57;;;25.30;74.50;;;;;;3559206;40;20029;-64
2021/07/26 07:07:49;;;;;;;14.48;10.82;;;25.30;74.00;;;;;;3558488;40;20034;-64
2021/07/26 07:10:16;;;;;;;11.80;10.60;;;25.30;74.20;;;;;;3556000;40;20049;-64
2021/07/26 07:12:42;;;;;;;11.55;9.95;;;25.40;75.20;;;;;;3557933;40;20080;-63
2021/07/26 07:15:08;;;;;;;14.13;9.77;;;25.50;74.00;;;;;;3558627;40;20034;-63
2021/07/26 07:17:34;;;;;;;12.48;10.82;;;25.60;72.60;;;;;;3557350;40;20046;-63
2021/07/26 07:20:00;;;;;;;11.20;9.52;;;25.70;71.80;;;;;;3558790;40;20044;-63
2021/07/26 07:22:26;;;;;;;15.80;10.27;;;25.80;70.80;;;;;;3558103;40;20033;-63
2021/07/26 07:24:51;;;;;;;10.57;9.27;;;25.90;70.00;;;;;;3559315;40;20497;-64
2021/07/26 07:27:17;;;;;;;10.60;9.50;;;26.10;70.30;;;;;;3559122;40;20065;-64
2021/07/26 07:29:43;;;;;;;12.25;9.80;;;26.30;70.40;;;;;;3559633;40;20025;-73
2021/07/26 07:32:12;;;;;;;10.93;9.50;;;26.40;70.10;;;;;;3559388;40;20421;-64
2021/07/26 07:34:41;;;;;;;10.75;9.48;;;26.40;69.60;;;;;;3558423;40;20740;-64
2021/07/26 07:37:10;;;;;;;11.75;9.93;;;26.50;69.60;;;;;;3560234;40;20041;-64
2021/07/26 07:39:36;;;;;;;12.07;9.60;;;26.60;70.50;;;;;;3558121;40;20065;-64
2021/07/26 07:42:03;;;;;;;12.77;10.30;;;26.60;70.00;;;;;;3560929;40;20097;-65
2021/07/26 07:44:32;;;;;;;14.55;9.80;;;26.60;69.00;;;;;;3563924;40;20536;-65
2021/07/26 07:47:00;;;;;;;13.23;10.30;;;26.70;70.00;;;;;;3559925;40;20029;-63
2021/07/26 07:49:26;;;;;;;11.73;10.50;;;26.70;69.50;;;;;;3559969;40;20022;-63
2021/07/26 07:51:51;;;;;;;12.15;10.18;;;26.80;69.60;;;;;;3557534;40;20037;-63
2021/07/26 07:54:17;;;;;;;12.52;10.57;;;26.90;70.20;;;;;;3557826;40;20419;-64
2021/07/26 07:56:45;;;;;;;11.32;9.35;;;27.00;69.40;;;;;;3559244;40;20052;-64
2021/07/26 07:59:10;;;;;;;13.88;10.18;;;27.10;69.10;;;;;;3559039;40;20073;-64
2021/07/26 08:01:36;;;;;;;13.85;10.50;;;27.20;69.30;;;;;;3558156;40;20041;-65
2021/07/26 08:04:03;;;;;;;13.27;10.93;;;27.30;68.80;;;;;;3559859;40;20021;-64
2021/07/26 08:06:29;;;;;;;12.93;9.90;;;27.40;68.60;;;;;;3558914;40;20032;-65
2021/07/26 08:08:55;;;;;;;12.02;10.60;;;27.50;67.30;;;;;;3558732;40;20033;-64
2021/07/26 08:11:21;;;;;;;11.57;9.77;;;27.60;66.50;;;;;;3560029;40;20040;-64
2021/07/26 08:13:46;;;;;;;17.13;9.80;;;27.70;67.40;;;;;;3560578;40;20312;-64
2021/07/26 08:16:13;;;;;;;13.95;10.70;;;27.80;66.20;;;;;;3559930;40;20113;-63
2021/07/26 08:18:39;;;;;;;13.18;10.85;;;27.80;65.70;;;;;;3559383;40;20136;-63
2021/07/26 08:21:05;;;;;;;11.27;10.15;;;28.00;66.90;;;;;;3560880;40;20388;-63
2021/07/26 08:23:31;;;;;;;12.52;10.07;;;28.10;67.00;;;;;;3560775;40;20037;-63
2021/07/26 08:25:56;;;;;;;12.45;9.95;;;28.10;64.60;;;;;;3558617;40;20123;-63
2021/07/26 08:28:22;;;;;;;13.32;9.52;;;28.10;63.90;;;;;;3560312;40;20054;-62
2021/07/26 08:30:48;;;;;;;11.52;9.32;;;28.10;64.20;;;;;;3560291;40;20030;-63
2021/07/26 08:33:13;;;;;;;11.48;9.55;;;28.00;63.70;;;;;;3560377;40;20040;-63
2021/07/26 08:35:39;;;;;;;12.60;9.38;;;28.10;63.90;;;;;;3560127;40;20036;-63
2021/07/26 08:38:06;;;;;;;11.82;10.05;;;28.10;64.90;;;;;;3560034;40;20056;-63
2021/07/26 08:40:33;;;;;;;12.32;8.95;;;28.20;64.40;;;;;;3560429;40;20108;-63
2021/07/26 08:43:08;;;;;;;11.43;9.80;;;28.30;63.80;;;;;;3550678;40;20030;-63
2021/07/26 08:45:35;;;;;;;13.98;9.40;;;28.40;62.70;;;;;;3560981;40;20457;-63
2021/07/26 08:48:04;;;;;;;13.23;10.38;;;28.50;62.50;;;;;;3560324;40;20656;-63
2021/07/26 08:50:33;;;;;;;13.35;10.27;;;28.50;62.70;;;;;;3561866;40;20092;-63
2021/07/26 08:53:00;;;;;;;11.07;9.32;;;28.50;62.20;;;;;;3561580;40;20045;-63
2021/07/26 08:55:26;;;;;;;13.05;10.38;;;28.50;61.80;;;;;;3561448;40;20033;-62
2021/07/26 08:57:52;;;;;;;10.15;8.98;;;28.50;61.80;;;;;;3561878;40;20030;-62
2021/07/26 09:00:19;;;;;;;10.90;9.27;;;28.60;61.30;;;;;;3560895;40;20496;-63
2021/07/26 09:02:45;;;;;;;11.48;9.38;;;28.80;61.40;;;;;;3562003;40;20091;-63
2021/07/26 09:05:12;;;;;;;11.88;10.07;;;28.80;61.70;;;;;;3562115;40;20034;-62
2021/07/26 09:07:40;;;;;;;9.30;8.27;;;28.90;63.40;;;;;;3561467;40;20049;-63
2021/07/26 09:10:13;;;;;;;10.43;7.82;;;28.90;62.00;;;;;;3561453;40;20437;-63
2021/07/26 09:12:40;;;;;;;11.23;8.35;;;28.80;60.00;;;;;;3561753;40;20032;-62
2021/07/26 09:15:21;;;;;;;9.65;7.72;;;28.70;60.30;;;;;;3561554;40;20123;-62
2021/07/26 09:17:47;;;;;;;11.25;8.32;;;28.70;61.60;;;;;;3561247;40;20403;-62
2021/07/26 09:20:13;;;;;;;9.77;7.60;;;28.60;60.60;;;;;;3561659;40;20068;-63
2021/07/26 09:22:41;;;;;;;8.85;6.88;;;28.60;60.70;;;;;;3561415;40;20041;-62
2021/07/26 09:25:19;;;;;;;10.85;8.60;;;28.60;60.50;;;;;;3561612;40;20630;-62
2021/07/26 09:28:11;;;;;;;8.80;7.90;;;28.60;60.60;;;;;;3561718;40;20034;-62
2021/07/26 09:30:44;;;;;;;8.70;7.20;;;28.60;60.50;;;;;;3556498;40;20064;-62
2021/07/26 09:33:29;;;;;;;8.65;7.03;;;28.60;60.00;;;;;;3560298;40;20475;-62
2021/07/26 09:36:21;;;;;;;9.07;6.97;;;28.60;58.70;;;;;;3560834;40;20419;-63
2021/07/26 09:38:52;;;;;;;8.93;6.75;;;28.60;59.80;;;;;;3560784;40;20047;-63
2021/07/26 09:41:45;;;;;;;8.38;7.57;;;28.50;58.90;;;;;;3559802;40;20774;-63
2021/07/26 09:44:12;;;;;;;9.18;7.85;;;28.50;59.80;;;;;;3560543;40;20041;-62
2021/07/26 09:46:39;;;;;;;9.93;7.72;;;28.60;58.30;;;;;;3561013;40;20095;-62
2021/07/26 09:49:15;;;;;;;9.82;7.65;;;28.60;58.60;;;;;;3562509;40;20639;-62
2021/07/26 09:51:43;;;;;;;8.73;6.97;;;28.70;58.50;;;;;;3562140;40;20026;-62
2021/07/26 09:54:09;;;;;;;10.00;7.10;;;28.70;57.30;;;;;;3562012;40;20395;-62
2021/07/26 09:56:35;;;;;;;10.77;7.57;;;28.80;57.60;;;;;;3559212;40;20036;-62
2021/07/26 09:59:02;;;;;;;8.10;6.80;;;28.90;57.90;;;;;;3560482;40;20025;-62
2021/07/26 10:01:29;;;;;;;8.75;7.80;;;28.90;57.50;;;;;;3559428;40;20029;-62
2021/07/26 10:03:56;;;;;;;9.48;7.40;;;28.90;57.40;;;;;;3561450;40;20039;-62
2021/07/26 10:06:22;;;;;;;9.15;7.13;;;29.00;57.80;;;;;;3559891;40;20032;-62
2021/07/26 10:08:48;;;;;;;10.68;7.20;;;29.10;58.10;;;;;;3560471;40;20021;-63
2021/07/26 10:11:17;;;;;;;7.82;6.90;;;29.20;56.70;;;;;;3560707;40;20466;-62
2021/07/26 10:13:49;;;;;;;9.95;7.50;;;29.20;56.50;;;;;;3561421;40;20037;-62
2021/07/26 10:16:16;;;;;;;8.40;7.22;;;29.00;57.00;;;;;;3559951;40;20025;-62
2021/07/26 10:18:47;;;;;;;7.50;6.28;;;29.00;57.00;;;;;;3560377;40;20407;-62
2021/07/26 10:21:17;;;;;;;8.10;6.25;;;29.00;58.00;;;;;;3561664;40;20041;-63
2021/07/26 10:24:03;;;;;;;7.72;6.78;;;29.00;58.60;;;;;;3561034;40;20442;-62
2021/07/26 10:26:35;;;;;;;7.22;6.47;;;28.90;59.30;;;;;;3558540;40;20041;-62
2021/07/26 10:29:02;;;;;;;10.63;7.50;;;28.90;61.10;;;;;;3561400;40;20041;-62
2021/07/26 10:31:28;;;;;;;7.97;7.18;;;28.90;59.80;;;;;;3561131;40;20633;-62
2021/07/26 10:34:11;;;;;;;9.23;7.70;;;28.90;60.00;;;;;;3561323;40;20021;-62
2021/07/26 10:36:45;;;;;;;7.68;6.80;;;28.80;61.20;;;;;;3561008;40;20412;-72
2021/07/26 10:39:18;;;;;;;8.30;7.28;;;28.70;62.00;;;;;;3557373;40;20034;-62
2021/07/26 10:41:44;;;;;;;9.45;8.00;;;28.60;62.30;;;;;;3560148;40;20074;-62
2021/07/26 10:44:16;;;;;;;8.85;7.88;;;28.50;61.20;;;;;;3559272;40;20030;-62
2021/07/26 10:46:53;;;;;;;8.68;7.63;;;28.50;61.10;;;;;;3558845;40;20741;-62
2021/07/26 10:49:51;;;;;;;10.80;7.60;;;28.40;63.10;;;;;;3561351;40;20029;-62
2021/07/26 10:52:22;;;;;;;16.88;7.72;;;28.30;63.90;;;;;;3546077;40;20435;-63
2021/07/26 10:54:49;;;;;;;17.63;9.13;;;28.20;70.00;;;;;;3560622;40;20515;-63
2021/07/26 10:57:35;;;;;;;12.38;8.48;;;28.00;76.20;;;;;;3559615;40;20088;-63
2021/07/26 11:00:09;;;;;;;13.20;8.73;;;27.70;74.40;;;;;;3559921;40;20131;-65
2021/07/26 11:02:40;;;;;;;10.30;8.02;;;27.30;76.40;;;;;;3560490;40;20029;-66
2021/07/26 11:05:27;;;;;;;10.38;7.72;;;27.00;74.90;;;;;;3558853;40;20037;-66
2021/07/26 11:08:14;;;;;;;8.25;7.35;;;26.50;73.20;;;;;;3558425;40;20038;-66
2021/07/26 11:10:46;;;;;;;8.55;6.68;;;26.10;75.40;;;;;;3558473;40;20040;-66
2021/07/26 11:13:13;;;;;;;10.23;6.97;;;26.00;76.40;;;;;;3556252;40;20052;-66
2021/07/26 11:15:45;;;;;;;7.65;6.95;;;26.00;75.40;;;;;;3560334;40;20059;-66
2021/07/26 11:18:40;;;;;;;11.38;7.72;;;26.00;75.70;;;;;;3560125;40;20048;-66
2021/07/26 11:21:21;;;;;;;10.02;7.32;;;26.20;79.00;;;;;;3560282;40;20041;-66
2021/07/26 11:23:54;;;;;;;8.52;6.82;;;26.60;78.40;;;;;;3559376;40;20088;-66
2021/07/26 11:26:27;;;;;;;7.85;7.00;;;26.80;75.20;;;;;;3560192;40;20072;-66
2021/07/26 11:28:55;;;;;;;6.55;5.57;;;26.80;76.10;;;;;;3554534;40;20043;-66
2021/07/26 11:31:22;;;;;;;6.95;5.85;;;26.90;73.10;;;;;;3559579;40;20072;-66
2021/07/26 11:33:49;;;;;;;5.80;5.05;;;26.80;72.30;;;;;;3558333;40;20029;-66
2021/07/26 11:36:15;;;;;;;6.45;5.35;;;26.80;72.80;;;;;;3550121;40;20025;-66
2021/07/26 11:39:03;;;;;;;8.80;4.50;;;26.90;74.20;;;;;;3559058;40;20034;-66
2021/07/26 11:41:29;;;;;;;6.50;4.75;;;27.00;69.50;;;;;;3557875;40;20073;-66
2021/07/26 11:43:55;;;;;;;6.07;4.82;;;27.10;74.10;;;;;;3558239;40;20032;-66
2021/07/26 11:46:22;;;;;;;5.60;4.75;;;27.10;69.80;;;;;;3556991;40;20064;-66
2021/07/26 11:48:56;;;;;;;4.85;4.35;;;27.30;73.00;;;;;;3559754;40;20446;-66
2021/07/26 11:51:25;;;;;;;4.78;4.20;;;27.30;66.30;;;;;;3559500;40;20034;-66
2021/07/26 11:54:02;;;;;;;5.55;4.50;;;27.20;66.30;;;;;;3559571;40;20077;-66
2021/07/26 11:56:29;;;;;;;6.03;4.85;;;27.20;71.80;;;;;;3560382;40;20198;-65
2021/07/26 11:59:18;;;;;;;5.00;4.50;;;27.30;71.90;;;;;;3560506;40;20168;-66
2021/07/26 12:01:58;;;;;;;5.43;4.85;;;27.40;74.60;;;;;;3559293;40;20081;-66
2021/07/26 12:04:26;;;;;;;5.13;4.63;;;27.40;69.60;;;;;;3559665;40;20044;-65
2021/07/26 12:06:57;;;;;;;6.15;4.85;;;27.50;68.40;;;;;;3559585;40;20037;-66
2021/07/26 12:09:24;;;;;;;6.57;5.10;;;27.50;69.40;;;;;;3559571;40;20116;-66
2021/07/26 12:11:50;;;;;;;5.80;5.20;;;27.50;74.20;;;;;;3558441;40;20041;-66
2021/07/26 12:14:31;;;;;;;9.73;5.20;;;27.60;76.90;;;;;;3558922;40;20029;-66
2021/07/26 12:17:09;;;;;;;5.68;5.18;;;27.70;70.80;;;;;;3558159;40;20131;-66
2021/07/26 12:19:37;;;;;;;6.80;6.05;;;27.90;69.90;;;;;;3557712;40;20395;-68
2021/07/26 12:22:21;;;;;;;9.25;4.80;;;28.00;74.40;;;;;;3558517;40;20029;-66
2021/07/26 12:24:54;;;;;;;5.70;4.88;;;28.10;70.20;;;;;;3559926;40;20048;-66
2021/07/26 12:27:30;;;;;;;6.25;5.43;;;28.20;71.80;;;;;;3559293;40;20033;-66
2021/07/26 12:30:00;;;;;;;8.80;5.35;;;28.10;68.80;;;;;;3558694;40;20053;-66
2021/07/26 12:32:26;;;;;;;6.78;5.20;;;28.10;68.60;;;;;;3560597;40;20410;-66
2021/07/26 12:35:13;;;;;;;7.10;5.60;;;28.10;68.10;;;;;;3561249;40;20029;-66
2021/07/26 12:37:39;;;;;;;7.95;5.50;;;28.20;66.50;;;;;;3560295;40;20034;-66
2021/07/26 12:40:15;;;;;;;7.15;5.47;;;28.30;65.00;;;;;;3563183;40;20049;-66